Time;durP1;ratioP1;P1;durP2;ratioP2;P2;SDS_P1;SDS_P2;PMS_P1;PMS_P2;Temp;Humidity;BMP_temperature;BMP_pressure;BME280_temperature;BME280_humidity;BME280_pressure;Samples;Min_cycle;Max_cycle;Signal;HPM_P1;HPM_P2
2023/05/06 00:00:42;;;;;;;22.25;14.82;;;;;;;13.47;79.04;99476.03;5012501;28;20104;-73
2023/05/06 00:03:08;;;;;;;19.17;13.95;;;;;;;13.36;79.76;99484.09;5011379;28;20021;-74
2023/05/06 00:05:34;;;;;;;13.88;10.25;;;;;;;13.34;79.41;99470.41;5013804;28;20030;-73
2023/05/06 00:08:00;;;;;;;14.98;9.80;;;;;;;13.36;79.23;99469.22;5030020;28;20060;-73
2023/05/06 00:10:25;;;;;;;17.13;10.88;;;;;;;13.30;79.50;99475.09;5026495;28;20044;-74
2023/05/06 00:12:51;;;;;;;14.25;9.98;;;;;;;13.44;78.98;99471.91;5030146;28;20480;-74
2023/05/06 00:15:17;;;;;;;14.43;10.98;;;;;;;13.28;79.24;99471.00;5030872;28;20029;-73
2023/05/06 00:17:42;;;;;;;14.98;10.88;;;;;;;13.37;78.66;99474.50;5027139;28;20048;-74
2023/05/06 00:20:09;;;;;;;15.50;11.32;;;;;;;13.19;79.07;99459.91;5021118;28;20017;-73
2023/05/06 00:22:34;;;;;;;18.08;10.95;;;;;;;13.28;79.07;99468.19;5031014;28;20021;-73
2023/05/06 00:25:00;;;;;;;16.13;11.60;;;;;;;13.17;79.08;99473.47;5030105;28;20065;-73
2023/05/06 00:27:26;;;;;;;13.25;9.35;;;;;;;13.19;79.23;99471.13;5029667;28;20108;-73
2023/05/06 00:29:51;;;;;;;12.02;9.80;;;;;;;13.01;80.26;99470.56;5021079;28;20454;-73
2023/05/06 00:32:17;;;;;;;13.77;9.85;;;;;;;12.97;79.70;99469.59;5012222;28;20025;-73
2023/05/06 00:34:42;;;;;;;14.38;9.73;;;;;;;13.08;79.16;99462.34;5019879;28;20497;-74
2023/05/06 00:37:07;;;;;;;13.25;10.27;;;;;;;13.22;78.72;99478.84;5011767;28;20065;-74
2023/05/06 00:39:33;;;;;;;14.93;9.77;;;;;;;13.44;78.25;99485.16;5013887;28;20022;-73
2023/05/06 00:42:03;;;;;;;13.75;8.63;;;;;;;13.69;76.79;99487.91;5015063;28;20033;-74
2023/05/06 00:44:29;;;;;;;11.45;8.50;;;;;;;13.77;76.10;99484.16;5017478;28;20020;-73
2023/05/06 00:46:55;;;;;;;13.10;8.75;;;;;;;13.63;76.30;99484.53;5034453;28;20053;-74
2023/05/06 00:49:22;;;;;;;12.27;9.32;;;;;;;13.62;76.46;99485.72;5033752;28;20026;-74
2023/05/06 00:51:48;;;;;;;17.20;9.35;;;;;;;13.74;75.67;99485.69;5021973;28;20524;-73
2023/05/06 00:54:14;;;;;;;14.18;9.75;;;;;;;13.55;76.26;99483.50;5014811;28;20034;-74
2023/05/06 00:56:40;;;;;;;12.00;9.07;;;;;;;13.55;76.32;99474.25;5014617;28;20022;-73
2023/05/06 00:59:06;;;;;;;14.55;8.55;;;;;;;13.74;75.57;99476.41;5016443;28;20040;-73
2023/05/06 01:01:32;;;;;;;14.23;9.00;;;;;;;13.58;75.30;99474.34;5015684;28;20061;-73
2023/05/06 01:03:59;;;;;;;16.58;10.82;;;;;;;13.66;75.66;99478.19;5032337;28;20025;-74
2023/05/06 01:06:33;;;;;;;14.82;10.60;;;;;;;13.52;76.04;99483.38;5029491;28;20097;-73
2023/05/06 01:09:21;;;;;;;12.27;9.40;;;;;;;13.54;75.99;99490.31;5014940;28;20057;-74
2023/05/06 01:11:53;;;;;;;13.00;9.57;;;;;;;13.51;75.69;99481.75;5032749;28;20033;-73
2023/05/06 01:14:32;;;;;;;12.20;9.70;;;;;;;13.50;75.82;99486.53;5022085;28;20040;-73
2023/05/06 01:17:02;;;;;;;11.50;9.05;;;;;;;13.52;76.10;99480.59;5032784;28;20032;-74
2023/05/06 01:19:40;;;;;;;16.80;9.00;;;;;;;13.31;76.59;99484.31;5027209;28;20401;-73
2023/05/06 01:22:08;;;;;;;12.57;9.35;;;;;;;13.45;76.66;99481.19;5014274;28;20424;-73
2023/05/06 01:24:42;;;;;;;14.43;9.32;;;;;;;13.62;75.68;99480.91;5018020;28;20032;-74
2023/05/06 01:27:08;;;;;;;11.93;8.57;;;;;;;13.65;75.43;99481.38;5033125;28;20033;-74
2023/05/06 01:29:37;;;;;;;11.95;10.02;;;;;;;13.66;75.27;99471.78;5027171;28;20045;-73
2023/05/06 01:32:22;;;;;;;11.23;8.95;;;;;;;13.34;76.21;99466.78;5014079;28;20030;-73
2023/05/06 01:34:59;;;;;;;14.05;10.48;;;;;;;13.25;76.58;99472.50;5017353;28;20045;-73
2023/05/06 01:37:43;;;;;;;15.02;10.98;;;;;;;13.44;76.00;99477.53;5033728;28;20028;-74
2023/05/06 01:40:11;;;;;;;19.27;9.95;;;;;;;13.43;75.87;99470.25;5024136;28;20018;-74
2023/05/06 01:42:38;;;;;;;14.93;10.05;;;;;;;13.32;75.93;99466.28;5017482;28;20026;-73
2023/05/06 01:45:05;;;;;;;16.83;9.95;;;;;;;13.25;76.29;99463.28;5013819;28;20105;-73
2023/05/06 01:47:32;;;;;;;16.05;10.35;;;;;;;13.25;76.18;99454.84;5017898;28;20037;-73
2023/05/06 01:49:58;;;;;;;12.48;9.43;;;;;;;13.21;76.18;99463.16;5022277;28;20405;-74
2023/05/06 01:52:25;;;;;;;9.90;7.80;;;;;;;13.23;76.40;99462.81;5019797;28;20030;-73
2023/05/06 01:54:50;;;;;;;14.00;10.05;;;;;;;13.37;75.85;99465.25;5024120;28;20025;-73
2023/05/06 01:57:16;;;;;;;13.43;8.60;;;;;;;13.30;76.07;99465.84;5013445;28;20386;-73
2023/05/06 01:59:41;;;;;;;13.60;9.25;;;;;;;13.31;75.92;99461.84;5013975;28;20056;-73
2023/05/06 02:02:07;;;;;;;12.85;9.48;;;;;;;13.37;75.96;99454.00;5030415;28;20017;-74
2023/05/06 02:04:32;;;;;;;13.10;9.50;;;;;;;13.45;75.59;99455.91;5033403;28;20056;-73
2023/05/06 02:06:58;;;;;;;13.80;9.13;;;;;;;13.43;75.48;99469.47;5032893;28;20097;-76
2023/05/06 02:09:23;;;;;;;10.23;7.68;;;;;;;13.44;75.58;99465.50;5026928;28;20493;-75
2023/05/06 02:11:48;;;;;;;12.43;9.98;;;;;;;13.48;76.18;99458.00;5013312;28;20500;-76
2023/05/06 02:14:14;;;;;;;12.93;9.10;;;;;;;13.57;75.30;99450.25;5011386;28;20060;-76
2023/05/06 02:16:39;;;;;;;13.20;9.52;;;;;;;13.59;75.14;99452.72;5023413;28;20103;-76
2023/05/06 02:19:05;;;;;;;13.55;9.43;;;;;;;13.64;74.88;99449.63;5030059;28;20029;-75
2023/05/06 02:21:30;;;;;;;12.23;9.57;;;;;;;13.65;74.46;99444.84;5011623;28;20028;-75
2023/05/06 02:23:56;;;;;;;15.50;10.02;;;;;;;13.57;74.91;99443.78;5013121;28;20105;-75
2023/05/06 02:26:22;;;;;;;14.05;10.63;;;;;;;13.53;74.69;99454.94;5032351;28;20079;-76
2023/05/06 02:28:47;;;;;;;14.45;10.13;;;;;;;13.53;74.60;99457.75;5031876;28;20035;-75
2023/05/06 02:31:16;;;;;;;19.17;10.50;;;;;;;13.56;74.40;99456.22;5023089;28;20033;-76
2023/05/06 02:33:43;;;;;;;14.07;10.70;;;;;;;13.53;73.90;99457.75;5013426;28;20045;-76
2023/05/06 02:36:09;;;;;;;17.55;10.38;;;;;;;13.41;74.53;99452.13;5012743;28;20032;-76
2023/05/06 02:38:34;;;;;;;16.90;11.63;;;;;;;13.40;74.35;99448.50;5012875;28;20022;-75
2023/05/06 02:41:00;;;;;;;16.20;12.13;;;;;;;13.45;74.35;99459.53;5027848;28;20067;-76
2023/05/06 02:43:25;;;;;;;23.63;11.73;;;;;;;13.47;74.35;99447.94;5032549;28;20025;-76
2023/05/06 02:45:51;;;;;;;17.35;11.98;;;;;;;13.51;74.32;99459.28;5031493;28;20476;-76
2023/05/06 02:48:16;;;;;;;24.88;11.90;;;;;;;13.50;74.56;99455.63;5032288;28;20056;-76
2023/05/06 02:50:42;;;;;;;27.83;12.63;;;;;;;13.48;74.64;99447.59;5019924;28;20030;-75
2023/05/06 02:53:09;;;;;;;15.85;12.02;;;;;;;13.46;74.42;99451.91;5012602;28;20029;-76
2023/05/06 02:55:35;;;;;;;23.58;11.43;;;;;;;13.44;74.25;99446.63;5013778;28;20511;-75
2023/05/06 02:58:01;;;;;;;34.33;11.18;;;;;;;13.26;74.30;99454.50;5011135;28;20021;-75
2023/05/06 03:00:26;;;;;;;11.55;8.98;;;;;;;12.91;74.85;99452.19;5012248;28;20018;-75
2023/05/06 03:02:52;;;;;;;15.05;10.30;;;;;;;12.77;75.62;99458.16;5010453;28;20504;-76
2023/05/06 03:05:17;;;;;;;13.90;9.75;;;;;;;12.88;75.75;99464.13;5012215;28;20416;-76
2023/05/06 03:07:42;;;;;;;16.05;9.27;;;;;;;13.04;75.22;99459.44;5024299;28;20053;-75
2023/05/06 03:10:08;;;;;;;15.43;10.73;;;;;;;13.03;74.83;99460.63;5030832;28;20064;-75
2023/05/06 03:12:34;;;;;;;18.27;10.65;;;;;;;12.96;75.30;99463.19;5031820;28;20492;-75
2023/05/06 03:14:59;;;;;;;14.07;10.80;;;;;;;12.58;76.31;99464.34;5032285;28;20100;-76
2023/05/06 03:17:25;;;;;;;21.05;12.20;;;;;;;12.29;77.53;99452.13;5030694;28;20092;-76
2023/05/06 03:19:51;;;;;;;19.30;11.45;;;;;;;12.33;78.36;99461.50;5031167;28;20028;-75
2023/05/06 03:22:16;;;;;;;18.73;10.88;;;;;;;12.51;77.30;99470.53;5030312;28;20025;-76
2023/05/06 03:24:42;;;;;;;41.40;11.38;;;;;;;12.46;77.20;99465.13;5024291;28;20049;-76
2023/05/06 03:27:07;;;;;;;16.55;10.60;;;;;;;12.37;77.92;99465.25;5011977;28;20093;-75
2023/05/06 03:29:32;;;;;;;13.15;9.75;;;;;;;12.10;78.25;99469.47;5016097;28;20025;-75
2023/05/06 03:32:02;;;;;;;16.40;11.15;;;;;;;11.69;79.36;99464.41;5031638;28;20025;-75
2023/05/06 03:34:28;;;;;;;15.93;10.55;;;;;;;11.72;79.99;99472.09;5030437;28;20163;-75
2023/05/06 03:36:54;;;;;;;17.05;9.90;;;;;;;11.63;80.25;99480.59;5031019;28;20496;-75
2023/05/06 03:39:19;;;;;;;15.63;9.95;;;;;;;11.49;81.04;99489.25;5019397;28;20025;-76
2023/05/06 03:41:45;;;;;;;14.93;10.60;;;;;;;11.09;82.25;99490.50;5022929;28;20412;-76
2023/05/06 03:44:10;;;;;;;19.63;10.57;;;;;;;10.91;84.29;99484.16;5025588;28;20419;-75
2023/05/06 03:46:37;;;;;;;14.93;10.15;;;;;;;10.92;84.70;99491.44;5031095;28;20513;-75
2023/05/06 03:49:03;;;;;;;18.67;10.75;;;;;;;10.79;85.53;99498.06;5016080;28;20034;-75
2023/05/06 03:51:29;;;;;;;18.60;12.27;;;;;;;10.89;86.08;99496.88;5029977;28;20079;-75
2023/05/06 03:53:55;;;;;;;19.95;12.30;;;;;;;10.83;86.00;99496.25;5020461;28;20480;-76
2023/05/06 03:56:21;;;;;;;22.08;15.32;;;;;;;10.61;87.89;99495.34;5013578;28;20026;-74
2023/05/06 03:58:47;;;;;;;20.33;13.45;;;;;;;10.62;88.81;99498.97;5014110;28;20018;-75
2023/05/06 04:01:12;;;;;;;21.52;13.45;;;;;;;10.73;88.10;99511.41;5011667;28;20453;-76
2023/05/06 04:03:38;;;;;;;22.52;12.90;;;;;;;10.87;86.99;99510.41;5020606;28;20038;-74
2023/05/06 04:06:04;;;;;;;20.02;14.15;;;;;;;10.93;86.62;99511.81;5024499;28;20024;-75
2023/05/06 04:08:29;;;;;;;22.67;15.65;;;;;;;10.99;86.71;99521.69;5015579;28;20048;-75
2023/05/06 04:10:55;;;;;;;23.33;14.85;;;;;;;11.07;86.22;99514.41;5030167;28;20564;-74
2023/05/06 04:13:20;;;;;;;16.90;12.35;;;;;;;11.22;84.89;99510.19;5023162;28;20477;-73
2023/05/06 04:15:47;;;;;;;22.95;15.77;;;;;;;11.42;84.42;99518.97;5023809;28;20026;-74
2023/05/06 04:18:17;;;;;;;27.42;17.73;;;;;;;11.56;83.67;99527.13;5028624;28;20040;-74
2023/05/06 04:20:45;;;;;;;31.17;20.35;;;;;;;11.75;83.10;99535.06;5022029;28;21215;-74
2023/05/06 04:23:11;;;;;;;21.98;16.67;;;;;;;11.93;82.27;99524.53;5015884;28;20068;-74
2023/05/06 04:25:36;;;;;;;23.10;14.82;;;;;;;12.15;81.65;99530.97;5029923;28;20025;-74
2023/05/06 04:28:02;;;;;;;20.60;13.23;;;;;;;12.05;80.83;99490.13;5030901;28;20022;-74
2023/05/06 04:30:27;;;;;;;17.83;13.13;;;;;;;12.29;80.10;99525.88;5027453;28;20022;-73
2023/05/06 04:32:53;;;;;;;16.88;11.55;;;;;;;12.28;80.53;99529.00;5026179;28;20499;-73
2023/05/06 04:35:18;;;;;;;22.58;12.20;;;;;;;12.26;81.14;99520.13;5018220;28;20021;-75
2023/05/06 04:37:44;;;;;;;18.85;12.27;;;;;;;12.29;80.21;99523.06;5017693;28;20424;-75
2023/05/06 04:40:12;;;;;;;16.70;11.80;;;;;;;12.48;79.66;99519.72;5027905;28;20022;-75
2023/05/06 04:42:38;;;;;;;16.35;12.23;;;;;;;12.61;80.00;99514.16;5017956;28;20026;-76
2023/05/06 04:45:04;;;;;;;15.90;11.23;;;;;;;12.73;79.62;99522.59;5023492;28;20060;-76
2023/05/06 04:47:29;;;;;;;18.73;12.77;;;;;;;12.81;79.41;99517.22;5020905;28;20049;-74
2023/05/06 04:49:56;;;;;;;16.73;12.63;;;;;;;13.05;78.51;99524.84;5021197;28;20025;-75
2023/05/06 04:52:21;;;;;;;23.10;12.38;;;;;;;13.20;78.49;99526.13;5027596;28;20036;-73
2023/05/06 04:54:47;;;;;;;20.40;12.20;;;;;;;13.35;77.39;99518.97;5016128;28;20022;-75
2023/05/06 04:57:12;;;;;;;15.93;11.30;;;;;;;13.45;76.03;99518.53;5023753;28;20483;-75
2023/05/06 04:59:38;;;;;;;17.90;12.27;;;;;;;13.53;75.21;99528.00;5017516;28;20029;-74
2023/05/06 05:02:03;;;;;;;16.63;12.80;;;;;;;13.53;75.26;99525.19;5024522;28;20025;-75
2023/05/06 05:04:29;;;;;;;16.00;11.43;;;;;;;13.33;75.81;99527.75;5023890;28;20065;-75
2023/05/06 05:06:54;;;;;;;14.57;10.88;;;;;;;13.15;76.57;99534.78;5015056;28;20040;-74
2023/05/06 05:09:20;;;;;;;16.67;11.73;;;;;;;13.02;77.23;99537.56;5012239;28;20037;-73
2023/05/06 05:11:45;;;;;;;16.42;12.50;;;;;;;13.19;78.19;99533.72;5019914;28;20021;-73
2023/05/06 05:14:11;;;;;;;15.40;11.27;;;;;;;13.31;77.65;99534.88;5012933;28;20048;-73
2023/05/06 05:16:36;;;;;;;16.00;10.07;;;;;;;13.26;78.10;99541.56;5013858;28;20026;-74
2023/05/06 05:19:01;;;;;;;15.77;11.13;;;;;;;13.18;78.58;99528.47;5011148;28;20587;-74
2023/05/06 05:21:27;;;;;;;21.45;11.77;;;;;;;13.26;79.09;99535.94;5016196;28;20034;-75
2023/05/06 05:23:53;;;;;;;12.82;10.13;;;;;;;13.22;78.46;99542.63;5011377;28;20034;-76
2023/05/06 05:26:18;;;;;;;17.63;12.13;;;;;;;13.22;79.60;99535.00;5025688;28;20025;-75
2023/05/06 05:28:44;;;;;;;20.10;12.50;;;;;;;13.42;78.43;99546.47;5012234;28;20424;-76
2023/05/06 05:31:09;;;;;;;14.77;11.18;;;;;;;13.58;77.77;99546.63;5014281;28;20040;-74
2023/05/06 05:33:35;;;;;;;28.95;12.20;;;;;;;13.75;76.48;99545.50;5011867;28;20405;-74
2023/05/06 05:36:00;;;;;;;16.00;11.50;;;;;;;13.86;74.13;99543.03;5010228;28;20034;-75
2023/05/06 05:38:26;;;;;;;17.67;14.30;;;;;;;14.00;73.86;99540.66;5011284;28;20034;-74
2023/05/06 05:40:52;;;;;;;15.10;10.60;;;;;;;13.99;73.81;99541.00;5024514;28;20021;-71
2023/05/06 05:43:20;;;;;;;18.58;10.65;;;;;;;13.85;73.54;99545.03;5022469;28;20025;-72
2023/05/06 05:45:45;;;;;;;14.65;10.02;;;;;;;13.70;75.35;99537.34;5024767;28;20033;-75
2023/05/06 05:48:11;;;;;;;14.13;10.35;;;;;;;13.94;75.58;99544.91;5019072;28;20045;-75
2023/05/06 05:50:36;;;;;;;15.68;11.02;;;;;;;13.98;74.62;99545.81;5029717;28;20056;-73
2023/05/06 05:53:01;;;;;;;12.65;9.88;;;;;;;14.00;74.13;99554.72;5019836;28;20025;-73
2023/05/06 05:55:28;;;;;;;14.35;11.05;;;;;;;14.23;74.86;99547.69;5019931;28;20040;-73
2023/05/06 05:57:53;;;;;;;19.75;11.27;;;;;;;14.17;74.89;99535.88;5018923;28;20039;-74
2023/05/06 06:00:20;;;;;;;12.68;9.35;;;;;;;14.33;74.78;99541.56;5019331;28;20029;-72
2023/05/06 06:02:45;;;;;;;18.25;10.13;;;;;;;14.51;73.64;99532.81;5028179;28;20518;-72
2023/05/06 06:05:10;;;;;;;13.85;9.55;;;;;;;14.47;74.03;99538.34;5014846;28;20034;-72
2023/05/06 06:07:36;;;;;;;11.95;9.73;;;;;;;14.64;72.85;99537.19;5022446;28;20040;-73
2023/05/06 06:10:05;;;;;;;14.70;9.65;;;;;;;14.84;73.16;99531.69;5010990;28;20030;-74
2023/05/06 06:12:30;;;;;;;11.48;8.50;;;;;;;15.00;71.05;99535.34;5015179;28;20060;-73
2023/05/06 06:14:56;;;;;;;12.13;9.38;;;;;;;15.02;70.11;99529.31;5016769;28;20048;-72
2023/05/06 06:17:21;;;;;;;14.43;9.20;;;;;;;15.10;69.89;99538.78;5013221;28;20052;-73
2023/05/06 06:19:47;;;;;;;19.23;9.35;;;;;;;15.15;70.73;99538.50;5022518;28;20021;-74
2023/05/06 06:22:12;;;;;;;15.48;10.43;;;;;;;15.29;69.00;99538.84;5015591;28;20160;-75
2023/05/06 06:24:37;;;;;;;14.20;9.20;;;;;;;15.46;69.08;99541.66;5010746;28;20024;-75
2023/05/06 06:27:03;;;;;;;15.05;9.85;;;;;;;15.69;67.63;99534.13;5010346;28;20451;-75
2023/05/06 06:29:28;;;;;;;15.18;9.38;;;;;;;15.74;67.47;99535.84;5015198;28;20033;-74
2023/05/06 06:31:57;;;;;;;16.55;9.90;;;;;;;15.76;66.96;99538.31;5022835;28;20025;-73
2023/05/06 06:34:23;;;;;;;15.52;10.73;;;;;;;15.99;66.65;99535.59;5013655;28;20030;-74
2023/05/06 06:36:48;;;;;;;12.48;9.27;;;;;;;16.13;65.30;99541.53;5017866;28;20034;-75
2023/05/06 06:39:14;;;;;;;10.15;8.35;;;;;;;15.91;64.12;99539.44;5030965;28;20018;-72
2023/05/06 06:41:39;;;;;;;11.63;8.18;;;;;;;16.23;64.90;99544.97;5013562;28;20772;-72
2023/05/06 06:44:05;;;;;;;11.48;7.45;;;;;;;16.52;62.96;99531.41;5017277;28;20108;-73
2023/05/06 06:46:30;;;;;;;14.43;9.23;;;;;;;16.95;62.32;99525.72;5030612;28;20057;-75
2023/05/06 06:48:56;;;;;;;10.93;7.72;;;;;;;17.19;60.15;99524.56;5016683;28;20060;-74
2023/05/06 06:51:21;;;;;;;9.93;7.53;;;;;;;17.33;60.15;99531.63;5011081;28;20038;-74
2023/05/06 06:53:48;;;;;;;12.85;8.90;;;;;;;17.41;60.19;99522.06;5029931;28;20037;-75
2023/05/06 06:56:14;;;;;;;12.98;7.30;;;;;;;17.47;58.66;99526.19;5026460;28;20029;-75
2023/05/06 06:58:40;;;;;;;12.35;6.90;;;;;;;17.48;59.41;99524.97;5024773;28;20031;-75
2023/05/06 07:01:06;;;;;;;7.53;6.28;;;;;;;17.70;57.85;99522.47;5029832;28;20033;-74
2023/05/06 07:03:31;;;;;;;17.65;7.78;;;;;;;18.12;56.47;99522.66;5028995;28;20029;-75
2023/05/06 07:05:57;;;;;;;8.18;7.22;;;;;;;18.31;55.07;99511.16;5027336;28;20030;-75
2023/05/06 07:08:22;;;;;;;12.80;6.32;;;;;;;18.33;54.89;99525.72;5010705;28;20041;-75
2023/05/06 07:10:48;;;;;;;11.50;6.00;;;;;;;18.15;55.18;99527.53;5027393;28;20034;-73
2023/05/06 07:13:13;;;;;;;9.15;5.95;;;;;;;18.19;55.36;99520.72;5016442;28;20042;-76
2023/05/06 07:15:39;;;;;;;11.00;6.97;;;;;;;18.51;55.51;99525.91;5016835;28;20029;-73
2023/05/06 07:18:05;;;;;;;9.18;7.15;;;;;;;19.02;54.25;99525.63;5028078;28;20032;-73
2023/05/06 07:20:30;;;;;;;7.65;5.38;;;;;;;19.33;52.39;99526.31;5022733;28;20137;-75
2023/05/06 07:22:56;;;;;;;11.63;7.90;;;;;;;19.34;51.92;99525.09;5011242;28;20037;-76
2023/05/06 07:25:21;;;;;;;9.15;5.65;;;;;;;19.52;51.57;99518.72;5018626;28;20034;-74
2023/05/06 07:27:47;;;;;;;8.75;5.57;;;;;;;19.91;50.07;99524.63;5024314;28;20064;-74
2023/05/06 07:30:12;;;;;;;8.05;4.82;;;;;;;19.86;47.96;99525.00;5012781;28;20697;-74
2023/05/06 07:32:40;;;;;;;26.52;6.65;;;;;;;19.86;48.89;99521.34;5015805;28;20044;-74
2023/05/06 07:35:05;;;;;;;11.35;4.32;;;;;;;19.25;46.50;99522.59;5021339;28;20087;-74
2023/05/06 07:37:31;;;;;;;13.02;4.25;;;;;;;19.17;47.93;99523.75;5021214;28;20041;-75
2023/05/06 07:39:57;;;;;;;7.18;4.72;;;;;;;19.17;49.36;99524.53;5015066;28;20029;-75
2023/05/06 07:42:22;;;;;;;9.60;5.07;;;;;;;19.47;48.93;99529.22;5008193;28;20040;-75
2023/05/06 07:44:48;;;;;;;7.20;4.35;;;;;;;19.72;47.28;99522.91;5013401;28;20061;-76
2023/05/06 07:47:26;;;;;;;9.07;4.25;;;;;;;19.40;47.26;99522.69;5026467;28;20057;-76
2023/05/06 07:49:51;;;;;;;5.15;4.07;;;;;;;20.10;45.23;99525.56;5027724;28;20116;-76
2023/05/06 07:52:17;;;;;;;5.35;4.68;;;;;;;20.11;44.13;99524.34;5023593;28;20409;-75
2023/05/06 07:54:42;;;;;;;7.40;4.20;;;;;;;20.31;44.87;99530.50;5024782;28;20842;-76
2023/05/06 07:57:08;;;;;;;5.50;4.65;;;;;;;20.63;44.52;99531.81;5023077;28;20381;-77
2023/05/06 07:59:33;;;;;;;5.15;4.60;;;;;;;20.85;44.55;99534.72;5016633;28;20033;-73
2023/05/06 08:01:59;;;;;;;8.27;4.35;;;;;;;20.96;43.60;99526.19;5020014;28;20041;-74
2023/05/06 08:04:24;;;;;;;5.68;3.95;;;;;;;21.20;43.62;99527.44;5027216;28;20029;-75
2023/05/06 08:06:50;;;;;;;6.95;4.60;;;;;;;20.40;42.52;99529.31;5027357;28;20172;-75
2023/05/06 08:09:15;;;;;;;437.13;42.65;;;;;;;20.86;43.99;99527.81;5030906;28;20025;-76
2023/05/06 08:11:41;;;;;;;72.35;9.27;;;;;;;21.21;42.35;99529.06;5028488;28;20037;-80
2023/05/06 08:14:06;;;;;;;12.18;5.60;;;;;;;21.11;43.33;99527.81;5021663;28;20107;-84
2023/05/06 08:16:32;;;;;;;7.28;5.10;;;;;;;21.10;43.12;99528.25;5024709;28;20060;-79
2023/05/06 08:18:57;;;;;;;10.95;5.40;;;;;;;21.22;42.88;99524.16;5012080;28;20423;-78
2023/05/06 08:21:24;;;;;;;7.18;4.75;;;;;;;20.54;41.76;99526.50;5031235;28;20025;-83
2023/05/06 08:23:50;;;;;;;5.43;4.00;;;;;;;20.99;42.31;99529.03;5029631;28;20025;-82
2023/05/06 08:26:15;;;;;;;6.70;4.47;;;;;;;21.15;41.16;99517.28;5029642;28;20033;-75
2023/05/06 08:28:41;;;;;;;8.23;3.85;;;;;;;21.50;40.88;99511.16;5031028;28;20034;-71
2023/05/06 08:31:06;;;;;;;5.93;4.05;;;;;;;21.10;40.44;99526.19;5015259;28;20030;-72
2023/05/06 08:33:32;;;;;;;7.00;3.85;;;;;;;21.72;39.29;99517.63;5025720;28;20026;-77
2023/05/06 08:35:57;;;;;;;5.45;4.43;;;;;;;22.09;38.89;99519.13;5030919;28;20022;-75
2023/05/06 08:38:24;;;;;;;6.72;4.15;;;;;;;22.48;38.11;99523.06;5031348;28;20030;-77
2023/05/06 08:40:52;;;;;;;5.95;3.85;;;;;;;22.91;37.33;99532.53;5027278;28;20037;-76
2023/05/06 08:43:20;;;;;;;4.97;3.60;;;;;;;22.89;37.07;99520.75;5016720;28;20040;-74
2023/05/06 08:45:45;;;;;;;5.03;3.45;;;;;;;22.34;37.49;99523.91;5015675;28;20021;-75
2023/05/06 08:48:11;;;;;;;4.78;4.32;;;;;;;23.00;37.00;99527.19;5015832;28;20119;-74
2023/05/06 08:50:42;;;;;;;6.00;4.90;;;;;;;23.29;37.13;99527.00;5011840;28;20038;-77
2023/05/06 08:53:13;;;;;;;5.45;4.85;;;;;;;23.51;36.68;99526.75;5016543;28;20022;-76
2023/05/06 08:55:43;;;;;;;8.27;3.92;;;;;;;23.64;36.64;99513.56;5029223;28;20036;-77
2023/05/06 08:58:12;;;;;;;7.43;4.17;;;;;;;23.50;36.05;99516.59;5028446;28;20033;-76
2023/05/06 09:00:38;;;;;;;5.97;3.75;;;;;;;23.10;36.10;99516.91;5028504;28;20881;-74
2023/05/06 09:03:03;;;;;;;8.88;4.28;;;;;;;23.32;36.64;99511.88;5027097;28;20037;-79
2023/05/06 09:05:29;;;;;;;14.52;4.70;;;;;;;23.64;36.63;99512.78;5020045;28;20038;-75
2023/05/06 09:07:54;;;;;;;6.10;3.90;;;;;;;23.73;35.53;99506.56;5032713;28;20038;-73
2023/05/06 09:10:20;;;;;;;12.65;4.68;;;;;;;23.88;36.82;99519.44;5026531;28;20036;-77
2023/05/06 09:12:46;;;;;;;7.47;4.20;;;;;;;22.85;38.46;99517.91;5020351;28;20036;-77
2023/05/06 09:15:11;;;;;;;6.78;4.07;;;;;;;23.34;37.33;99511.44;5034305;28;20057;-79
2023/05/06 09:17:37;;;;;;;8.02;5.50;;;;;;;23.73;36.49;99507.38;5034469;28;20029;-78
2023/05/06 09:20:07;;;;;;;14.05;5.70;;;;;;;24.15;35.11;99504.47;5034569;28;20096;-74
2023/05/06 09:22:32;;;;;;;7.10;5.60;;;;;;;23.13;37.32;99494.06;5029061;28;20025;-74
2023/05/06 09:24:58;;;;;;;13.93;7.90;;;;;;;23.14;36.13;99500.59;5036774;28;20077;-75
2023/05/06 09:27:30;;;;;;;12.15;6.30;;;;;;;22.98;37.72;99496.22;5039746;28;20662;-75
2023/05/06 09:30:10;;;;;;;8.35;6.28;;;;;;;22.90;37.12;99502.41;5019544;28;20029;-82
2023/05/06 09:32:36;;;;;;;6.68;3.78;;;;;;;23.06;37.33;99493.31;5018307;28;20525;-77
2023/05/06 09:35:05;;;;;;;56.60;33.92;;;;;;;23.12;36.96;99486.75;5032917;28;20131;-78
2023/05/06 09:37:30;;;;;;;16.90;10.25;;;;;;;22.78;37.54;99495.97;5032141;28;20096;-74
2023/05/06 09:39:59;;;;;;;6.53;4.60;;;;;;;22.43;37.97;99494.94;5028290;28;20022;-77
2023/05/06 09:42:27;;;;;;;14.80;6.90;;;;;;;22.54;37.50;99495.72;5029536;28;20432;-77
2023/05/06 09:44:58;;;;;;;15.27;6.50;;;;;;;22.36;37.66;99492.16;5030210;28;20029;-77
2023/05/06 09:47:25;;;;;;;4.80;4.25;;;;;;;22.39;37.91;99486.44;5033293;28;20056;-75
2023/05/06 09:49:55;;;;;;;25.05;17.05;;;;;;;22.47;38.71;99487.22;5033517;28;20036;-72
2023/05/06 09:52:22;;;;;;;28.63;18.65;;;;;;;22.37;38.78;99488.88;5022643;28;20404;-76
2023/05/06 09:54:50;;;;;;;34.80;21.65;;;;;;;22.48;38.36;99477.47;5024274;28;20503;-75
2023/05/06 09:57:17;;;;;;;9.18;4.47;;;;;;;22.75;37.35;99481.78;5016059;28;20090;-77
2023/05/06 09:59:43;;;;;;;5.85;4.20;;;;;;;23.16;37.73;99483.88;5024773;28;20017;-77
2023/05/06 10:02:12;;;;;;;9.75;6.68;;;;;;;23.50;37.55;99476.63;5024032;28;20083;-77
2023/05/06 10:04:40;;;;;;;7.95;4.30;;;;;;;23.55;36.15;99481.91;5027439;28;20033;-77
2023/05/06 10:07:08;;;;;;;8.52;4.90;;;;;;;23.67;35.27;99478.50;5030656;28;20036;-77
2023/05/06 10:09:35;;;;;;;8.32;4.47;;;;;;;23.63;34.81;99483.41;5026563;28;20514;-77
2023/05/06 10:12:01;;;;;;;10.57;4.65;;;;;;;23.33;35.10;99481.28;5027620;28;20030;-76
2023/05/06 10:14:27;;;;;;;11.30;4.32;;;;;;;23.54;35.59;99466.00;5019428;28;20030;-75
2023/05/06 10:16:53;;;;;;;7.60;4.70;;;;;;;23.73;35.28;99478.00;5025943;28;20026;-75
2023/05/06 10:19:23;;;;;;;11.70;3.63;;;;;;;23.61;34.30;99462.25;5032073;28;20124;-77
2023/05/06 10:21:56;;;;;;;5.63;3.37;;;;;;;23.30;34.84;99459.31;5031768;28;20039;-76
2023/05/06 10:24:28;;;;;;;12.32;4.88;;;;;;;23.45;35.24;99479.97;5031626;28;20044;-79
2023/05/06 10:26:55;;;;;;;8.10;4.00;;;;;;;23.66;35.59;99471.16;5028560;28;20053;-79
2023/05/06 10:29:24;;;;;;;7.05;3.80;;;;;;;23.83;35.79;99465.66;5030951;28;20488;-80
2023/05/06 10:31:59;;;;;;;17.27;4.65;;;;;;;23.82;35.65;99464.03;5029025;28;20033;-79
2023/05/06 10:34:30;;;;;;;13.25;4.40;;;;;;;23.70;35.40;99459.69;5024369;28;20029;-80
2023/05/06 10:36:58;;;;;;;6.07;3.47;;;;;;;23.64;34.51;99462.19;5024249;28;20047;-80
2023/05/06 10:39:25;;;;;;;9.05;3.90;;;;;;;23.78;35.41;99471.84;5022772;28;20029;-79
2023/05/06 10:41:50;;;;;;;6.95;3.97;;;;;;;23.72;35.01;99470.69;5028166;28;20488;-76
2023/05/06 10:44:16;;;;;;;5.07;3.75;;;;;;;23.55;34.38;99467.63;5023100;28;20096;-76
2023/05/06 10:46:59;;;;;;;8.80;3.63;;;;;;;23.70;34.72;99460.50;5028027;28;20053;-80
2023/05/06 10:49:25;;;;;;;7.97;4.43;;;;;;;23.69;35.38;99472.34;5023042;28;20033;-81
2023/05/06 10:52:10;;;;;;;6.45;4.25;;;;;;;23.60;34.93;99467.16;5030729;28;20504;-77
2023/05/06 10:54:49;;;;;;;6.20;3.85;;;;;;;23.34;35.69;99477.19;5027712;28;20400;-79
2023/05/06 10:57:15;;;;;;;9.20;4.65;;;;;;;23.25;35.33;99472.78;5014372;28;20065;-76
2023/05/06 10:59:45;;;;;;;4.10;3.70;;;;;;;23.17;35.19;99476.09;5024907;28;20056;-77
2023/05/06 11:02:12;;;;;;;6.30;3.60;;;;;;;23.19;35.10;99477.31;5022792;28;20044;-77
2023/05/06 11:04:38;;;;;;;5.93;3.80;;;;;;;23.26;36.06;99482.13;5031008;28;20025;-78
2023/05/06 11:07:10;;;;;;;3.88;3.47;;;;;;;23.20;35.17;99478.13;5023857;28;20715;-77
2023/05/06 11:09:59;;;;;;;16.00;4.05;;;;;;;23.25;35.52;99477.66;5024674;28;20033;-76
2023/05/06 11:12:47;;;;;;;5.07;3.97;;;;;;;23.30;35.13;99479.28;5031316;28;20113;-77
2023/05/06 11:15:26;;;;;;;6.95;3.60;;;;;;;23.25;34.36;99477.66;5018519;28;20029;-74
2023/05/06 11:17:55;;;;;;;7.65;3.78;;;;;;;23.22;34.75;99472.81;5026341;28;20032;-74
2023/05/06 11:20:24;;;;;;;7.32;3.80;;;;;;;23.46;34.69;99484.44;5012485;28;20018;-73
2023/05/06 11:22:50;;;;;;;7.47;4.70;;;;;;;23.45;34.70;99477.09;5012569;28;20025;-74